Time;durP1;ratioP1;P1;durP2;ratioP2;P2;SDS_P1;SDS_P2;PMS_P1;PMS_P2;Temp;Humidity;BMP_temperature;BMP_pressure;BME280_temperature;BME280_humidity;BME280_pressure;Samples;Min_cycle;Max_cycle;Signal;HPM_P1;HPM_P2
2022/04/06 00:04:52;;;;;;;6.28;4.95;;;;;;;6.36;100.00;100301.84;10457317;28;20049;-75
2022/04/06 00:09:53;;;;;;;7.03;4.82;;;;;;;6.38;100.00;100294.63;10456652;28;20033;-75
2022/04/06 00:14:54;;;;;;;8.20;5.00;;;;;;;5.75;100.00;100182.72;10438700;28;20045;-75
2022/04/06 00:19:54;;;;;;;6.45;4.57;;;;;;;6.51;100.00;100310.16;10456099;28;20068;-75
2022/04/06 00:24:56;;;;;;;5.93;4.78;;;;;;;6.40;100.00;100300.59;10456755;28;20044;-75
2022/04/06 00:29:57;;;;;;;7.03;4.60;;;;;;;5.44;100.00;100157.34;10456050;28;20044;-75
2022/04/06 00:40:19;;;;;;;5.95;4.55;;;;;;;6.25;100.00;100282.69;10455137;28;20448;-75
2022/04/06 00:45:22;;;;;;;6.88;5.10;;;;;;;6.31;100.00;100298.81;10454824;28;20452;-75
2022/04/06 00:50:25;;;;;;;7.32;5.20;;;;;;;6.38;100.00;100309.63;10455040;28;20033;-75
2022/04/06 00:55:37;;;;;;;7.60;5.30;;;;;;;6.25;100.00;100280.06;10455027;28;20075;-76
2022/04/06 01:00:38;;;;;;;6.28;5.22;;;;;;;6.17;100.00;100275.50;10455136;28;20044;-75
2022/04/06 01:05:39;;;;;;;6.25;5.18;;;;;;;6.33;100.00;100286.28;10435196;28;20183;-75
2022/04/06 01:10:40;;;;;;;8.18;4.88;;;;;;;6.41;100.00;100301.44;10413494;28;20045;-75
2022/04/06 01:15:41;;;;;;;6.90;5.40;;;;;;;6.33;100.00;100290.75;10424887;28;20560;-75
2022/04/06 01:20:41;;;;;;;9.98;6.18;;;;;;;6.25;100.00;100299.38;10442351;28;20379;-75
2022/04/06 01:25:42;;;;;;;8.93;6.93;;;;;;;6.03;100.00;100289.94;10413001;28;20049;-76
2022/04/06 01:30:43;;;;;;;12.85;7.82;;;;;;;6.06;100.00;100308.13;10413829;28;20033;-75
2022/04/06 01:35:44;;;;;;;9.07;7.53;;;;;;;5.67;100.00;100233.47;10420422;28;20045;-75
2022/04/06 01:40:44;;;;;;;10.20;7.82;;;;;;;5.42;100.00;100188.25;10420867;28;20045;-75
2022/04/06 01:45:46;;;;;;;10.35;8.45;;;;;;;6.29;100.00;100316.59;10421063;28;20042;-75
2022/04/06 01:56:06;;;;;;;10.50;8.48;;;;;;;6.29;100.00;100303.41;10420775;28;20061;-75
2022/04/06 02:01:07;;;;;;;14.52;9.10;;;;;;;6.36;100.00;100324.75;10402134;28;20041;-76
2022/04/06 02:06:08;;;;;;;12.90;10.38;;;;;;;6.01;100.00;100273.44;10419667;28;20029;-75
2022/04/06 02:11:08;;;;;;;13.63;9.95;;;;;;;5.97;100.00;100273.88;10420060;28;20065;-76
2022/04/06 02:16:09;;;;;;;13.48;11.50;;;;;;;6.28;100.00;100322.00;10420539;28;20119;-76
2022/04/06 02:21:10;;;;;;;15.18;11.27;;;;;;;5.45;100.00;100210.88;10420456;28;20045;-76
2022/04/06 02:26:11;;;;;;;14.38;10.65;;;;;;;5.96;100.00;100303.84;10419449;28;20038;-75
2022/04/06 02:31:12;;;;;;;14.02;10.55;;;;;;;5.55;100.00;100210.88;10419409;28;20041;-75
2022/04/06 02:36:13;;;;;;;12.85;10.55;;;;;;;6.20;100.00;100312.16;10426643;28;20419;-75
2022/04/06 02:41:14;;;;;;;19.25;12.13;;;;;;;5.73;100.00;100232.91;10432440;28;20049;-75
2022/04/06 02:46:15;;;;;;;13.98;11.02;;;;;;;6.23;100.00;100308.41;10422808;28;20045;-75
2022/04/06 02:51:16;;;;;;;14.93;11.15;;;;;;;5.43;100.00;100178.56;10450231;28;20512;-75
2022/04/06 02:56:17;;;;;;;15.15;11.90;;;;;;;6.29;100.00;100329.78;10446102;28;20096;-75
2022/04/06 03:01:18;;;;;;;18.10;11.57;;;;;;;6.11;100.00;100287.44;10443141;28;20049;-75
2022/04/06 03:06:19;;;;;;;14.90;11.10;;;;;;;6.24;100.00;100310.06;10444531;28;20447;-75
2022/04/06 03:11:22;;;;;;;15.70;12.02;;;;;;;6.34;100.00;100334.63;10442481;28;20052;-74
2022/04/06 03:16:23;;;;;;;17.88;12.65;;;;;;;6.33;100.00;100328.50;10458174;28;20048;-75
2022/04/06 03:21:24;;;;;;;13.80;11.02;;;;;;;5.91;100.00;100272.59;10457226;28;20043;-75
2022/04/06 03:26:24;;;;;;;13.30;10.25;;;;;;;5.35;100.00;100173.97;10457554;28;20071;-74
2022/04/06 03:31:25;;;;;;;12.32;10.15;;;;;;;6.40;100.00;100348.09;10458344;28;20041;-75
2022/04/06 03:36:26;;;;;;;13.40;9.15;;;;;;;5.84;100.00;100243.31;10458225;28;20036;-75
2022/04/06 03:41:27;;;;;;;12.18;9.20;;;;;;;6.50;100.00;100357.81;10458727;28;20045;-74
2022/04/06 03:46:28;;;;;;;11.27;8.90;;;;;;;5.85;100.00;100233.59;10430665;28;20048;-76
2022/04/06 03:51:29;;;;;;;12.52;9.00;;;;;;;6.71;100.00;100374.28;10457479;28;20480;-79
2022/04/06 03:56:30;;;;;;;10.30;7.80;;;;;;;6.68;100.00;100373.75;10455407;28;20053;-74
2022/04/06 04:01:31;;;;;;;11.15;8.18;;;;;;;6.72;100.00;100378.59;10457110;28;20048;-74
2022/04/06 04:06:32;;;;;;;9.70;7.45;;;;;;;6.72;100.00;100365.38;10457747;28;20105;-79
2022/04/06 04:18:14;;;;;;;10.32;7.25;;;;;;;7.12;100.00;100393.38;10454588;28;20423;-78
2022/04/06 04:23:15;;;;;;;9.05;7.05;;;;;;;7.14;99.93;100370.25;10457316;28;20047;-80
2022/04/06 04:33:31;;;;;;;9.88;7.20;;;;;;;6.01;100.00;100186.41;11369195;23;21034;-76
2022/04/06 04:38:32;;;;;;;11.48;7.82;;;;;;;7.06;99.86;100371.00;10287911;28;20050;-77
2022/04/06 04:43:33;;;;;;;9.68;7.10;;;;;;;7.00;99.68;100378.66;10278859;28;20047;-76
2022/04/06 04:48:34;;;;;;;10.60;7.45;;;;;;;7.08;99.47;100369.03;10279870;28;20043;-78
2022/04/06 04:53:35;;;;;;;10.77;7.75;;;;;;;6.93;99.53;100327.41;10252382;29;20043;-77
2022/04/06 04:58:36;;;;;;;11.13;7.53;;;;;;;7.15;99.71;100379.88;10250947;29;20063;-77
2022/04/06 05:03:36;;;;;;;14.82;8.40;;;;;;;6.44;99.71;100266.84;10252264;29;20051;-77
2022/04/06 05:08:37;;;;;;;10.73;7.53;;;;;;;7.08;98.77;100373.47;10250885;28;20039;-77
2022/04/06 05:13:38;;;;;;;14.85;7.93;;;;;;;7.15;98.64;100377.22;10252055;29;20051;-77
2022/04/06 05:18:39;;;;;;;11.02;9.07;;;;;;;6.88;98.66;100348.13;10251892;29;20090;-77
2022/04/06 05:23:40;;;;;;;11.45;8.23;;;;;;;7.19;98.85;100372.47;10251213;29;20529;-77
2022/04/06 05:28:40;;;;;;;9.70;7.93;;;;;;;7.41;98.40;100380.00;10251161;29;20043;-77
2022/04/06 05:33:43;;;;;;;9.25;8.07;;;;;;;7.30;98.19;100354.63;10252788;28;20043;-77
2022/04/06 05:38:44;;;;;;;9.70;7.45;;;;;;;7.57;97.64;100376.75;10291664;28;20042;-77
2022/04/06 05:43:45;;;;;;;10.15;8.38;;;;;;;7.60;97.21;100360.59;10291047;28;20399;-78
2022/04/06 05:48:45;;;;;;;73.35;34.05;;;;;;;7.91;96.53;100381.41;10291945;28;20070;-78
2022/04/06 05:53:46;;;;;;;76.35;42.53;;;;;;;7.38;95.80;100268.50;10291296;28;20046;-77
2022/04/06 05:58:47;;;;;;;42.33;24.05;;;;;;;7.92;95.20;100348.69;10291122;28;20042;-78
2022/04/06 06:03:48;;;;;;;13.75;8.88;;;;;;;8.25;95.25;100376.25;10290786;28;20043;-78
2022/04/06 06:08:49;;;;;;;12.60;6.72;;;;;;;8.28;94.47;100385.72;10290439;28;20430;-75
2022/04/06 06:13:50;;;;;;;10.00;6.15;;;;;;;8.05;93.69;100313.91;10290224;28;20046;-76
2022/04/06 06:18:50;;;;;;;297.27;131.25;;;;;;;8.53;92.76;100357.69;10294119;28;20173;-76
2022/04/06 06:23:53;;;;;;;27.98;13.88;;;;;;;8.69;91.96;100385.09;10297896;28;20042;-78
2022/04/06 06:28:54;;;;;;;15.55;8.68;;;;;;;8.89;91.51;100374.31;10298065;28;20043;-77
2022/04/06 06:33:56;;;;;;;6.38;5.50;;;;;;;8.64;90.57;100315.03;10297563;28;20058;-77
2022/04/06 06:38:57;;;;;;;21.35;12.70;;;;;;;9.03;89.81;100380.81;10297169;28;20035;-77
2022/04/06 06:43:58;;;;;;;17.85;9.38;;;;;;;8.68;88.85;100330.47;10297477;28;20042;-77
2022/04/06 06:49:05;;;;;;;14.65;8.63;;;;;;;8.89;88.80;100385.72;10298068;28;20039;-77
2022/04/06 06:54:06;;;;;;;12.15;7.70;;;;;;;8.12;88.41;100268.19;10296962;28;20379;-78
2022/04/06 06:59:06;;;;;;;47.88;28.25;;;;;;;8.79;88.45;100382.34;10296925;28;20042;-78
2022/04/06 07:04:07;;;;;;;11.88;8.20;;;;;;;8.48;88.14;100330.81;10296567;28;20050;-79
2022/04/06 07:09:08;;;;;;;8.73;6.38;;;;;;;9.06;87.28;100373.41;10296324;28;20042;-78
2022/04/06 07:14:09;;;;;;;12.32;6.75;;;;;;;8.97;85.85;100361.09;10295627;28;20047;-78
2022/04/06 07:19:09;;;;;;;13.43;7.95;;;;;;;9.08;85.89;100360.81;10295600;28;20045;-78
2022/04/06 07:24:10;;;;;;;11.18;6.75;;;;;;;9.06;85.39;100323.06;10295372;28;20096;-77
2022/04/06 07:29:13;;;;;;;9.73;6.13;;;;;;;8.72;84.55;100197.75;10294586;28;20050;-77
2022/04/06 07:34:13;;;;;;;9.98;6.60;;;;;;;9.21;82.90;100240.28;10278314;28;20494;-78
2022/04/06 07:39:14;;;;;;;14.10;6.75;;;;;;;10.26;81.87;100345.75;10295342;28;20120;-79
2022/04/06 07:44:15;;;;;;;9.48;6.28;;;;;;;10.10;80.17;100278.53;10294468;28;20051;-79
2022/04/06 07:49:15;;;;;;;9.82;6.90;;;;;;;10.70;80.75;100387.06;10295157;28;20035;-78
2022/04/06 07:54:16;;;;;;;9.40;6.25;;;;;;;9.65;80.75;100200.25;10294354;28;20047;-79
2022/04/06 07:59:17;;;;;;;8.95;6.13;;;;;;;10.75;80.20;100379.44;10294021;28;20038;-78
2022/04/06 08:04:17;;;;;;;8.70;6.55;;;;;;;10.48;78.74;100346.09;10293970;28;20042;-79
2022/04/06 08:09:18;;;;;;;12.05;6.60;;;;;;;10.86;79.36;100386.19;10294280;28;20081;-79
2022/04/06 08:14:20;;;;;;;9.75;6.65;;;;;;;10.92;79.56;100369.59;10293813;28;20039;-77
2022/04/06 08:19:22;;;;;;;8.25;7.45;;;;;;;10.87;79.81;100386.03;10293898;28;20395;-78
2022/04/06 08:24:27;;;;;;;26.42;20.08;;;;;;;10.56;78.72;100324.84;10293747;28;20039;-78
2022/04/06 08:29:33;;;;;;;14.48;10.05;;;;;;;10.89;78.20;100392.03;10292861;28;20039;-77
2022/04/06 08:34:44;;;;;;;12.93;9.90;;;;;;;10.96;78.49;100382.38;10293065;28;20063;-78
2022/04/06 08:39:46;;;;;;;13.02;9.32;;;;;;;11.08;78.45;100411.25;10288621;28;20075;-78
2022/04/06 08:44:52;;;;;;;10.95;7.95;;;;;;;10.23;76.44;100305.38;10292533;28;20133;-77
2022/04/06 08:49:55;;;;;;;10.82;8.65;;;;;;;10.48;78.37;100367.31;10292239;28;20047;-78
2022/04/06 08:54:56;;;;;;;11.18;8.85;;;;;;;10.65;78.20;100371.63;10292571;28;20050;-78
2022/04/06 08:59:56;;;;;;;14.82;9.48;;;;;;;10.24;78.57;100294.63;10292525;28;20406;-77
2022/04/06 09:04:57;;;;;;;14.95;9.15;;;;;;;10.84;77.94;100366.97;10292474;28;20039;-76
2022/04/06 09:09:59;;;;;;;12.57;9.57;;;;;;;10.35;77.30;100288.19;10292656;28;20049;-77
2022/04/06 09:15:11;;;;;;;10.20;9.07;;;;;;;11.14;77.81;100389.31;10291232;28;20042;-77
2022/04/06 09:20:13;;;;;;;17.85;10.15;;;;;;;10.96;76.88;100371.75;10292408;28;20054;-78
2022/04/06 09:25:16;;;;;;;12.48;9.65;;;;;;;11.01;76.74;100357.09;10292124;28;20434;-78
2022/04/06 09:30:17;;;;;;;13.45;9.43;;;;;;;11.78;75.06;100359.94;10291306;28;20514;-78
2022/04/06 09:35:28;;;;;;;11.30;8.00;;;;;;;12.29;72.36;100275.91;10291890;28;20066;-78
2022/04/06 09:40:29;;;;;;;12.93;9.25;;;;;;;12.94;70.48;100333.00;10291972;28;20059;-78
2022/04/06 09:50:55;;;;;;;14.52;10.23;;;;;;;12.95;69.14;100357.84;10291345;28;20122;-78
2022/04/06 09:55:56;;;;;;;14.18;10.73;;;;;;;12.70;70.86;100376.75;10297871;28;20047;-78
2022/04/06 10:00:57;;;;;;;13.30;10.82;;;;;;;11.61;69.78;100226.19;10299729;28;20097;-79
2022/04/06 10:05:59;;;;;;;15.70;12.15;;;;;;;12.42;71.72;100357.03;10299301;28;20042;-77
2022/04/06 10:11:00;;;;;;;16.20;13.32;;;;;;;12.85;70.51;100365.28;10298596;28;20039;-77
2022/04/06 10:16:01;;;;;;;18.42;13.23;;;;;;;11.78;70.39;100230.34;10297892;28;20061;-77
2022/04/06 10:21:13;;;;;;;23.50;19.08;;;;;;;11.60;68.46;100187.25;10297545;28;20043;-77
2022/04/06 10:26:46;;;;;;;21.70;19.33;;;;;;;13.01;68.50;100357.09;10298013;28;20556;-78
2022/04/06 10:31:46;;;;;;;21.60;18.90;;;;;;;13.15;67.59;100355.44;10285499;28;20058;-78
2022/04/06 10:37:15;;;;;;;21.48;18.75;;;;;;;13.52;65.69;100359.88;10297113;28;20054;-77
2022/04/06 10:42:37;;;;;;;22.90;17.73;;;;;;;13.76;64.64;100365.88;10296809;28;20109;-79
2022/04/06 10:47:38;;;;;;;22.15;18.75;;;;;;;13.29;66.38;100354.66;10296734;28;20583;-79
2022/04/06 10:52:39;;;;;;;19.95;17.85;;;;;;;12.52;66.90;100237.69;10297088;28;20150;-77
2022/04/06 10:58:01;;;;;;;21.95;16.65;;;;;;;13.59;64.33;100395.47;10296387;28;20043;-76
2022/04/06 11:03:30;;;;;;;19.30;17.30;;;;;;;13.76;63.34;100382.75;10295968;28;20054;-79
2022/04/06 11:14:27;;;;;;;20.40;15.32;;;;;;;13.54;63.32;100362.34;10296495;28;20513;-77
2022/04/06 11:19:30;;;;;;;18.75;14.88;;;;;;;13.08;64.32;100288.69;10296497;28;20070;-77
2022/04/06 11:24:31;;;;;;;22.60;15.30;;;;;;;13.54;63.75;100373.03;10295103;28;20129;-77
2022/04/06 11:29:36;;;;;;;25.00;15.90;;;;;;;12.98;63.91;100360.13;10295708;28;20038;-77
2022/04/06 11:34:39;;;;;;;26.58;15.68;;;;;;;13.19;64.15;100383.41;10295409;28;20067;-77
2022/04/06 11:39:40;;;;;;;60.90;17.70;;;;;;;12.70;65.81;100311.94;10295107;28;20483;-77
2022/04/06 11:44:40;;;;;;;21.38;16.40;;;;;;;12.97;65.85;100353.16;10295176;28;20050;-77
2022/04/06 11:49:41;;;;;;;22.92;15.50;;;;;;;13.44;65.91;100357.31;10294378;28;20562;-77
2022/04/06 11:54:50;;;;;;;41.80;15.60;;;;;;;13.76;63.80;100357.88;10294852;28;20051;-78
2022/04/06 11:59:55;;;;;;;16.27;14.57;;;;;;;13.69;63.66;100283.06;10294875;28;20070;-78
2022/04/06 12:05:01;;;;;;;18.48;15.35;;;;;;;14.22;64.18;100378.91;10294257;28;20053;-76
2022/04/06 12:10:01;;;;;;;20.08;15.10;;;;;;;14.20;63.63;100370.25;10295199;28;20452;-77
2022/04/06 12:15:06;;;;;;;17.25;14.23;;;;;;;13.66;62.50;100289.59;10293293;28;20070;-77
2022/04/06 12:20:26;;;;;;;19.50;14.63;;;;;;;14.25;62.12;100387.38;10293360;28;20039;-78
2022/04/06 12:25:31;;;;;;;16.08;14.27;;;;;;;13.74;62.01;100367.94;10293088;28;20039;-79
2022/04/06 12:30:32;;;;;;;16.25;14.35;;;;;;;13.54;63.82;100389.84;10291031;28;20130;-79
2022/04/06 12:35:32;;;;;;;23.30;15.57;;;;;;;13.51;63.80;100392.06;10292217;28;20153;-78
2022/04/06 12:40:33;;;;;;;19.85;15.55;;;;;;;13.24;63.88;100381.84;10293059;28;20051;-79
2022/04/06 12:45:47;;;;;;;22.80;16.10;;;;;;;13.17;64.26;100399.59;10287996;28;20045;-78
2022/04/06 12:50:48;;;;;;;23.65;15.95;;;;;;;12.40;65.08;100297.75;10287163;28;20053;-77
2022/04/06 12:56:09;;;;;;;18.73;15.38;;;;;;;12.41;64.75;100280.75;10287765;28;20418;-78
2022/04/06 13:01:13;;;;;;;19.80;16.30;;;;;;;13.10;65.40;100380.03;10300663;28;20078;-77
2022/04/06 13:06:14;;;;;;;18.85;16.23;;;;;;;13.04;65.14;100367.41;10290572;28;20046;-78
2022/04/06 13:11:15;;;;;;;20.08;17.10;;;;;;;12.65;65.42;100303.66;10288962;28;20035;-75
2022/04/06 13:16:16;;;;;;;21.58;18.73;;;;;;;13.27;65.06;100388.69;10274123;28;20399;-76
2022/04/06 13:21:23;;;;;;;23.17;20.25;;;;;;;12.44;65.23;100294.53;10287447;28;20042;-76
2022/04/06 13:26:24;;;;;;;28.60;22.05;;;;;;;13.16;65.69;100439.78;10286490;28;20046;-76
2022/04/06 13:31:27;;;;;;;27.13;20.75;;;;;;;13.15;65.37;100448.81;10289488;28;20414;-77
2022/04/06 13:36:27;;;;;;;34.38;20.50;;;;;;;12.74;65.63;100361.22;10291617;28;20062;-77
2022/04/06 13:41:28;;;;;;;26.45;19.85;;;;;;;13.00;65.51;100408.78;10306053;28;20105;-80
2022/04/06 13:46:29;;;;;;;32.35;19.50;;;;;;;13.17;65.15;100433.47;10325875;28;20042;-75
2022/04/06 13:51:33;;;;;;;23.77;19.85;;;;;;;13.12;64.94;100434.00;10320072;28;20042;-75
2022/04/06 13:56:34;;;;;;;21.40;17.90;;;;;;;12.89;65.88;100407.41;10291305;28;20047;-74
2022/04/06 14:01:36;;;;;;;22.95;17.85;;;;;;;12.93;66.19;100430.03;10289068;28;20046;-73
2022/04/06 14:06:37;;;;;;;24.83;16.48;;;;;;;12.82;66.20;100424.28;10291501;28;20510;-74
2022/04/06 14:11:41;;;;;;;24.92;15.23;;;;;;;12.88;67.47;100451.06;10291026;28;20573;-74
2022/04/06 14:16:42;;;;;;;20.25;15.43;;;;;;;12.66;67.81;100425.28;10289404;28;20039;-75
2022/04/06 14:21:43;;;;;;;20.95;15.32;;;;;;;12.50;67.75;100407.56;10291442;28;20050;-73
2022/04/06 14:26:45;;;;;;;28.05;15.32;;;;;;;12.79;67.59;100466.28;10286089;28;20042;-73
2022/04/06 14:31:46;;;;;;;19.75;14.82;;;;;;;12.70;67.69;100471.88;10288872;28;20426;-74
2022/04/06 14:36:47;;;;;;;16.50;14.05;;;;;;;12.36;67.30;100453.66;10289607;28;20530;-73
2022/04/06 14:41:48;;;;;;;21.75;14.80;;;;;;;11.69;67.72;100367.13;10295846;28;20078;-73
2022/04/06 14:46:48;;;;;;;20.23;14.98;;;;;;;12.06;68.85;100456.97;10297654;28;20043;-74
2022/04/06 14:51:49;;;;;;;17.05;14.65;;;;;;;12.20;68.65;100487.34;10297748;28;20038;-75
2022/04/06 14:56:50;;;;;;;20.40;15.98;;;;;;;11.52;69.41;100413.47;10297532;28;20491;-74
2022/04/06 15:01:51;;;;;;;21.05;15.82;;;;;;;11.86;70.15;100496.50;10295191;28;20097;-74
2022/04/06 15:06:52;;;;;;;22.33;15.95;;;;;;;11.53;70.34;100468.31;10294274;28;20039;-75
2022/04/06 15:11:53;;;;;;;23.35;16.48;;;;;;;11.19;70.98;100448.13;10293379;28;20050;-74
2022/04/06 15:16:54;;;;;;;22.65;16.60;;;;;;;10.82;71.34;100406.97;10292993;28;20046;-75
2022/04/06 15:21:55;;;;;;;20.83;16.60;;;;;;;10.78;71.64;100410.97;10293334;28;20038;-75
2022/04/06 15:26:56;;;;;;;21.08;16.80;;;;;;;11.26;72.08;100512.94;10294042;28;20129;-76
2022/04/06 15:31:57;;;;;;;23.83;17.80;;;;;;;11.24;72.61;100538.84;10293653;28;20522;-76
2022/04/06 15:42:24;;;;;;;22.27;16.60;;;;;;;10.78;73.51;100476.59;10292114;28;20049;-76
2022/04/06 15:47:26;;;;;;;54.22;18.10;;;;;;;10.44;74.50;100435.88;10292726;28;20540;-77
2022/04/06 15:52:27;;;;;;;31.20;18.63;;;;;;;9.46;74.94;100289.75;10292554;28;20085;-76
2022/04/06 15:57:28;;;;;;;26.48;16.98;;;;;;;10.89;75.09;100534.72;10275511;28;20473;-78
2022/04/06 16:02:29;;;;;;;28.30;18.27;;;;;;;10.18;75.77;100440.47;10272506;28;20059;-76
2022/04/06 16:07:30;;;;;;;37.40;16.58;;;;;;;10.89;75.83;100572.75;10291879;28;20043;-80
2022/04/06 16:12:31;;;;;;;56.90;16.67;;;;;;;10.55;76.23;100548.94;10291299;28;20055;-79
2022/04/06 16:17:33;;;;;;;31.08;17.45;;;;;;;10.52;76.83;100560.72;10292843;28;20051;-78
2022/04/06 16:22:34;;;;;;;29.20;17.83;;;;;;;10.58;76.82;100585.81;10275808;28;20047;-83
2022/04/06 16:27:35;;;;;;;30.98;16.52;;;;;;;10.40;77.04;100582.44;10293541;28;20039;-78
2022/04/06 16:32:36;;;;;;;28.08;16.10;;;;;;;10.39;77.63;100602.03;10293391;28;20049;-76
2022/04/06 16:37:37;;;;;;;23.98;16.00;;;;;;;9.59;78.13;100491.66;10293715;28;20066;-76
2022/04/06 16:42:37;;;;;;;23.05;15.75;;;;;;;10.24;78.82;100617.69;10290104;28;20053;-76
2022/04/06 16:52:50;;;;;;;22.63;17.02;;;;;;;10.20;79.47;100640.22;10745609;23;20497;-74
2022/04/06 16:57:51;;;;;;;23.23;18.05;;;;;;;9.75;79.87;100590.88;10322059;28;20129;-74
2022/04/06 17:02:54;;;;;;;26.63;19.63;;;;;;;9.85;80.17;100623.47;10332189;28;20072;-75
2022/04/06 17:07:55;;;;;;;31.70;20.58;;;;;;;8.55;80.52;100417.41;10331891;28;20038;-75
2022/04/06 17:12:56;;;;;;;30.10;21.20;;;;;;;9.61;81.05;100632.09;10311419;28;20047;-79
2022/04/06 17:17:57;;;;;;;33.63;22.35;;;;;;;9.55;82.04;100659.22;10332219;28;20074;-76
2022/04/06 17:22:59;;;;;;;29.08;20.50;;;;;;;8.80;81.98;100561.50;10371806;28;20140;-75
2022/04/06 17:28:00;;;;;;;28.85;20.00;;;;;;;9.16;82.21;100662.19;10371908;28;20042;-77
2022/04/06 17:33:01;;;;;;;26.58;19.50;;;;;;;9.01;82.73;100688.38;10372904;28;20049;-75
2022/04/06 17:38:02;;;;;;;26.02;18.23;;;;;;;8.67;83.41;100693.44;10372843;28;20061;-76
2022/04/06 17:43:03;;;;;;;32.10;21.27;;;;;;;7.71;84.93;100573.72;10371961;28;20049;-76
2022/04/06 17:48:08;;;;;;;27.50;20.52;;;;;;;8.18;85.81;100672.44;10354615;28;20042;-75
2022/04/06 17:53:09;;;;;;;39.42;23.88;;;;;;;7.64;85.80;100605.19;10372297;28;20131;-76
2022/04/06 17:58:10;;;;;;;31.10;22.25;;;;;;;7.13;86.05;100524.47;10371266;28;20045;-76
2022/04/06 18:03:10;;;;;;;36.20;22.40;;;;;;;7.41;85.95;100593.28;10371153;28;20046;-76
2022/04/06 18:08:12;;;;;;;48.05;28.05;;;;;;;7.90;86.10;100695.34;10354259;28;20037;-76
2022/04/06 18:18:32;;;;;;;41.88;25.75;;;;;;;7.03;86.28;100618.72;10378799;28;20057;-75
2022/04/06 18:23:33;;;;;;;42.33;27.42;;;;;;;6.71;86.50;100611.06;10361504;28;20073;-75
2022/04/06 18:28:36;;;;;;;46.50;26.02;;;;;;;6.64;87.56;100637.16;10379470;28;20073;-75
2022/04/06 18:33:38;;;;;;;44.05;26.25;;;;;;;6.85;87.54;100711.03;10377619;28;20081;-75
2022/04/06 18:38:39;;;;;;;38.13;23.83;;;;;;;6.52;87.70;100654.06;10378461;28;20033;-76
2022/04/06 18:43:41;;;;;;;38.90;26.48;;;;;;;6.77;87.72;100690.56;10370950;28;20041;-76
2022/04/06 18:48:42;;;;;;;39.95;26.05;;;;;;;6.67;88.73;100678.28;10346049;28;20057;-76
2022/04/06 18:53:43;;;;;;;38.92;25.88;;;;;;;6.01;88.45;100581.13;10345196;28;20051;-76
2022/04/06 18:58:44;;;;;;;37.50;22.00;;;;;;;6.42;88.66;100658.50;10373977;28;20042;-76
2022/04/06 19:03:45;;;;;;;31.55;21.55;;;;;;;5.77;88.10;100574.31;10374305;28;20073;-76
2022/04/06 19:08:45;;;;;;;32.70;21.73;;;;;;;5.64;87.99;100600.06;10377330;28;20117;-76
2022/04/06 19:13:47;;;;;;;34.75;22.42;;;;;;;5.96;88.65;100678.28;10377225;28;20096;-76
2022/04/06 19:18:48;;;;;;;34.03;22.80;;;;;;;6.03;89.39;100705.78;10377647;28;20132;-76
2022/04/06 19:23:49;;;;;;;33.10;21.67;;;;;;;5.72;89.54;100652.97;10377314;28;20556;-76
2022/04/06 19:28:49;;;;;;;59.00;32.75;;;;;;;6.08;89.32;100716.78;10358492;28;20128;-76
2022/04/06 19:33:50;;;;;;;36.20;24.15;;;;;;;5.64;88.76;100685.25;10375803;28;20132;-76
2022/04/06 19:38:51;;;;;;;38.30;22.80;;;;;;;5.61;89.53;100697.84;10364072;28;20038;-76
2022/04/06 19:43:52;;;;;;;33.63;21.17;;;;;;;5.68;90.05;100720.94;10368718;28;20042;-74
2022/04/06 19:48:53;;;;;;;38.92;21.63;;;;;;;5.31;90.20;100673.06;10370286;28;20037;-75
2022/04/06 19:53:54;;;;;;;32.85;22.17;;;;;;;4.32;90.58;100516.19;10376044;28;20057;-76
2022/04/06 19:58:55;;;;;;;29.67;19.70;;;;;;;4.59;90.73;100586.78;10372614;28;20493;-75
2022/04/06 20:03:56;;;;;;;35.00;22.17;;;;;;;5.37;90.71;100735.78;10375459;28;20046;-76
2022/04/06 20:08:56;;;;;;;29.70;20.35;;;;;;;5.14;91.39;100727.09;10357555;28;20068;-76
2022/04/06 20:13:58;;;;;;;28.83;19.60;;;;;;;4.99;91.36;100717.81;10375471;28;20049;-76
2022/04/06 20:18:59;;;;;;;42.45;20.83;;;;;;;4.69;92.39;100674.53;10374695;28;20046;-76
2022/04/06 20:24:00;;;;;;;25.65;17.17;;;;;;;5.07;91.90;100752.25;10374746;28;20470;-76
2022/04/06 20:29:01;;;;;;;23.58;15.48;;;;;;;4.80;91.05;100731.59;10374337;28;20046;-76
2022/04/06 20:34:02;;;;;;;19.02;14.40;;;;;;;4.16;90.73;100661.19;10374382;28;20488;-76
2022/04/06 20:39:03;;;;;;;26.08;16.30;;;;;;;3.78;90.75;100632.59;10373654;28;20034;-77
2022/04/06 20:44:05;;;;;;;21.35;16.00;;;;;;;3.79;91.53;100619.31;10373425;28;20045;-76
2022/04/06 20:49:06;;;;;;;18.55;15.02;;;;;;;4.63;91.08;100748.69;10373201;28;20057;-76
2022/04/06 20:54:07;;;;;;;26.42;17.20;;;;;;;4.43;90.77;100702.06;10373986;28;20081;-76
2022/04/06 20:59:10;;;;;;;23.52;15.55;;;;;;;4.55;91.61;100744.06;10373423;28;20448;-77
2022/04/06 21:04:11;;;;;;;28.08;14.73;;;;;;;3.79;91.11;100660.53;10373762;28;20046;-76
2022/04/06 21:09:16;;;;;;;21.10;14.82;;;;;;;4.07;91.37;100722.38;10370532;28;20369;-76
2022/04/06 21:14:17;;;;;;;21.77;14.52;;;;;;;4.00;90.96;100721.97;10372614;28;20042;-76
2022/04/06 21:19:20;;;;;;;27.15;16.70;;;;;;;3.34;91.29;100610.50;10372800;28;20042;-76
2022/04/06 21:24:21;;;;;;;20.93;15.90;;;;;;;4.25;91.52;100755.16;10372646;28;20045;-76
2022/04/06 21:29:23;;;;;;;23.17;14.20;;;;;;;3.51;91.33;100643.41;10354967;28;20508;-76
2022/04/06 21:34:24;;;;;;;21.42;15.45;;;;;;;3.99;91.76;100749.22;10354676;28;20057;-76
2022/04/06 21:39:25;;;;;;;20.90;15.63;;;;;;;3.83;92.16;100710.13;10354813;28;20038;-76
2022/04/06 21:44:26;;;;;;;29.48;15.43;;;;;;;3.12;90.96;100614.75;10373191;28;20409;-76
2022/04/06 21:49:27;;;;;;;30.70;21.25;;;;;;;3.87;91.46;100734.38;10374366;28;20062;-75
2022/04/06 21:54:28;;;;;;;27.30;21.20;;;;;;;3.43;91.50;100675.47;10379714;28;20041;-75
2022/04/06 21:59:28;;;;;;;29.50;23.50;;;;;;;3.09;91.76;100622.00;10379908;28;20124;-76
2022/04/06 22:04:29;;;;;;;33.38;22.80;;;;;;;3.57;93.12;100693.69;10380202;28;20515;-75
2022/04/06 22:09:30;;;;;;;27.08;19.98;;;;;;;3.07;92.88;100602.91;10379099;28;20034;-76
2022/04/06 22:14:35;;;;;;;29.55;17.65;;;;;;;3.77;92.56;100730.75;10379654;28;20417;-78
2022/04/06 22:19:35;;;;;;;30.10;19.58;;;;;;;3.20;91.62;100667.53;10379003;28;20037;-75
2022/04/06 22:24:36;;;;;;;40.72;23.48;;;;;;;3.56;91.96;100718.28;10379461;28;20041;-75
2022/04/06 22:29:37;;;;;;;53.65;20.52;;;;;;;3.43;91.58;100705.19;10378262;28;20060;-76
2022/04/06 22:34:38;;;;;;;31.42;20.50;;;;;;;3.49;91.47;100709.16;10378232;28;20120;-75
2022/04/06 22:39:38;;;;;;;27.42;19.52;;;;;;;3.53;92.36;100749.16;10379226;28;20041;-76
2022/04/06 22:44:39;;;;;;;25.33;17.30;;;;;;;3.45;92.28;100741.03;10378841;28;20053;-76
2022/04/06 22:49:40;;;;;;;30.90;18.48;;;;;;;3.35;92.29;100738.22;10372714;28;20053;-76
2022/04/06 22:54:41;;;;;;;29.33;19.85;;;;;;;3.16;92.49;100709.84;10360443;28;20571;-76
2022/04/06 22:59:41;;;;;;;30.58;21.92;;;;;;;3.32;93.09;100735.81;10375569;28;20041;-76
2022/04/06 23:04:42;;;;;;;29.83;20.20;;;;;;;2.62;93.92;100631.53;10336982;28;20038;-76
2022/04/06 23:09:43;;;;;;;30.00;19.77;;;;;;;3.23;94.25;100729.47;10337837;28;20042;-76
2022/04/06 23:14:46;;;;;;;26.17;16.70;;;;;;;1.79;93.62;100514.19;10336655;28;20054;-76
2022/04/06 23:19:46;;;;;;;25.58;17.67;;;;;;;2.62;93.32;100674.34;10336087;28;20041;-75
2022/04/06 23:24:47;;;;;;;23.02;15.70;;;;;;;1.42;93.29;100518.53;10335959;28;20068;-75
2022/04/06 23:29:48;;;;;;;30.27;17.75;;;;;;;2.45;93.71;100696.53;10335893;28;20441;-75
2022/04/06 23:34:49;;;;;;;23.45;15.85;;;;;;;2.78;94.03;100725.72;10335314;28;20046;-76
2022/04/06 23:39:50;;;;;;;21.15;15.88;;;;;;;2.15;93.54;100639.19;10335802;28;20125;-76
2022/04/06 23:44:51;;;;;;;25.35;17.98;;;;;;;2.06;93.07;100637.19;10335649;28;20049;-76